Airfield :
LOGIN :

Register | Disclaimer

   EN    FR    IT 

 










Legend :    VFR   Marginal VFR   IFR   Intensive IFR   Very Intensive IFR
Visi :
Ceiling :
>= 8 km
>= 3000ft
5 to 8 km
1000 to 3000 ft
1500m to 5 km
500 to 1000 ft
800 to 1500m
200 to 500 ft
< 800m
< 200 ft
Symbols :   Thunderstorms  Fog  Heavy snow  Heavy precipitations  Wind > 20 kt
SIGMETs :     Misc.  Thunderstorms  Icing  Turbulence  Mountain Waves  Volcanic Ashes






- Airport Elevation : 278 ft
- IATA code : RJK


LDRI - Rijeka

CURRENT METAR :
  • 101900Z 12004KT 9999 FEW040 BKN055 12/06 Q1022

EXPIRED METARs :
  • 101830Z 08005KT 9999 FEW040 BKN055 12/07 Q1022
  • 101800Z 00000KT 9999 FEW040 BKN055 12/06 Q1022
  • 101730Z 00000KT 9999 BKN045 12/07 Q1022
  • 101700Z VRB02KT 9999 BKN040 13/06 Q1022
  • 101630Z VRB02KT 9999 BKN040 12/07 Q1022

TAF TAF LDRI
Valid from the 10 at 18:00 until the 11 at 18:00 UTC


101725Z 1018/1118 14004KT 9999 BKN040 TX13/1111Z TN09/1106Z
TEMPO 1110/1114 14008KT
PROB30
TEMPO 1106/1112 RA BKN014



MET'MAP, your aeronautical weather chart ! - Copyright ORBIFLY December 2007 - Disclaimer

ORBIFLY MET'MAP TEAM :

Programming & Development : Alexandra Zaïnal
Concept & original design : Baudouin d'Aumeries
Assistance for programming : Marc-Olivier Méhu
Technical & hardware support : Manuel Goepfert

Contact : metmap@orbifly.com




SOURCES & CREDITS :

   NOAA